Time;durP1;ratioP1;P1;durP2;ratioP2;P2;SDS_P1;SDS_P2;PMS_P1;PMS_P2;Temp;Humidity;BMP_temperature;BMP_pressure;BME280_temperature;BME280_humidity;BME280_pressure;Samples;Min_cycle;Max_cycle;Signal;HPM_P1;HPM_P2
2023/11/23 00:00:39;;;;;;;29.45;20.08;;;9.40;97.40;;;;;;5021144;28;20540;-76
2023/11/23 00:03:05;;;;;;;31.85;19.52;;;9.40;97.40;;;;;;5019520;28;20061;-75
2023/11/23 00:05:31;;;;;;;27.77;20.00;;;9.50;97.40;;;;;;5017708;28;20053;-75
2023/11/23 00:07:58;;;;;;;28.77;20.67;;;9.50;97.40;;;;;;5018646;28;20106;-75
2023/11/23 00:10:23;;;;;;;30.70;21.33;;;9.50;97.40;;;;;;5014068;28;20053;-75
2023/11/23 00:12:49;;;;;;;29.25;21.77;;;9.60;97.40;;;;;;5017096;28;20029;-74
2023/11/23 00:15:15;;;;;;;31.23;22.92;;;9.60;97.50;;;;;;5019083;28;20060;-78
2023/11/23 00:17:41;;;;;;;31.88;21.90;;;9.60;97.60;;;;;;5018758;28;20192;-74
2023/11/23 00:20:07;;;;;;;29.67;23.05;;;9.60;97.60;;;;;;5019160;28;20129;-75
2023/11/23 00:22:34;;;;;;;28.63;22.17;;;9.60;97.40;;;;;;5020585;28;20152;-73
2023/11/23 00:25:00;;;;;;;30.88;22.10;;;9.60;97.40;;;;;;5015435;28;20049;-75
2023/11/23 00:27:26;;;;;;;27.52;21.45;;;9.70;97.30;;;;;;5018985;28;20094;-77
2023/11/23 00:29:51;;;;;;;30.15;22.02;;;9.60;97.20;;;;;;5034137;28;20037;-74
2023/11/23 00:32:18;;;;;;;29.80;22.48;;;9.60;97.20;;;;;;5017510;28;20038;-75
2023/11/23 00:34:44;;;;;;;31.30;21.75;;;9.70;97.20;;;;;;5020947;28;20044;-75
2023/11/23 00:37:10;;;;;;;29.88;22.92;;;9.70;97.20;;;;;;5017374;28;20393;-75
2023/11/23 00:39:36;;;;;;;28.65;22.50;;;9.70;97.10;;;;;;5019741;28;20065;-77
2023/11/23 00:42:03;;;;;;;30.30;22.15;;;9.70;97.10;;;;;;5018749;28;20564;-75
2023/11/23 00:44:29;;;;;;;28.63;20.70;;;9.70;97.20;;;;;;5018955;28;20413;-77
2023/11/23 00:46:54;;;;;;;31.92;22.23;;;9.70;97.20;;;;;;5019579;28;20037;-78
2023/11/23 00:49:20;;;;;;;28.23;20.98;;;9.70;97.10;;;;;;5019849;28;21014;-75
2023/11/23 00:51:47;;;;;;;29.63;21.88;;;9.70;97.10;;;;;;5019793;28;20530;-75
2023/11/23 00:54:12;;;;;;;27.98;21.33;;;9.70;97.20;;;;;;5021601;28;20037;-74
2023/11/23 00:56:38;;;;;;;28.38;21.85;;;9.80;97.10;;;;;;5017247;28;20047;-75
2023/11/23 00:59:04;;;;;;;29.40;20.83;;;9.80;97.10;;;;;;5018419;28;20091;-76
2023/11/23 01:01:30;;;;;;;26.05;21.15;;;9.80;97.00;;;;;;5022982;28;20499;-74
2023/11/23 01:03:56;;;;;;;29.45;21.55;;;9.80;97.00;;;;;;5019409;28;20466;-74
2023/11/23 01:06:22;;;;;;;27.83;20.75;;;9.80;97.00;;;;;;5015385;28;20494;-75
2023/11/23 01:08:47;;;;;;;25.13;20.38;;;9.80;97.10;;;;;;5020476;28;20026;-76
2023/11/23 01:11:14;;;;;;;26.48;20.00;;;9.80;97.20;;;;;;5018653;28;20041;-75
2023/11/23 01:13:41;;;;;;;27.95;20.95;;;9.80;97.20;;;;;;5016215;28;20037;-75
2023/11/23 01:16:08;;;;;;;29.42;21.40;;;9.80;97.20;;;;;;5019160;28;20041;-74
2023/11/23 01:18:34;;;;;;;30.85;21.52;;;9.80;97.30;;;;;;5018204;28;20042;-76
2023/11/23 01:20:59;;;;;;;30.67;22.15;;;9.80;97.30;;;;;;5019311;28;20393;-75
2023/11/23 01:23:25;;;;;;;27.90;18.77;;;9.90;97.30;;;;;;5017409;28;20104;-74
2023/11/23 01:25:52;;;;;;;26.15;19.88;;;9.90;97.30;;;;;;5018246;28;20033;-77
2023/11/23 01:28:19;;;;;;;27.05;19.45;;;9.90;97.30;;;;;;5015191;28;20593;-75
2023/11/23 01:30:45;;;;;;;27.35;20.45;;;10.00;97.30;;;;;;5019335;28;20038;-75
2023/11/23 01:33:11;;;;;;;25.63;19.20;;;10.00;97.20;;;;;;5017316;28;20037;-76
2023/11/23 01:35:37;;;;;;;24.65;18.65;;;10.00;97.20;;;;;;5035793;28;20117;-74
2023/11/23 01:38:03;;;;;;;27.70;19.95;;;10.10;97.10;;;;;;5016757;28;20057;-76
2023/11/23 01:40:30;;;;;;;25.30;20.05;;;10.10;97.10;;;;;;5017590;28;20522;-76
2023/11/23 01:43:05;;;;;;;28.02;20.55;;;10.10;97.10;;;;;;5017561;28;20038;-75
2023/11/23 01:45:31;;;;;;;26.83;20.65;;;10.10;97.10;;;;;;5014645;28;20068;-74
2023/11/23 01:47:58;;;;;;;25.02;19.98;;;10.10;97.00;;;;;;5018290;28;20593;-74
2023/11/23 01:50:25;;;;;;;24.13;19.70;;;10.10;97.00;;;;;;5017775;28;20034;-75
2023/11/23 01:52:51;;;;;;;28.33;19.20;;;10.10;96.90;;;;;;5019811;28;20115;-73
2023/11/23 01:55:18;;;;;;;27.23;19.42;;;10.10;96.90;;;;;;5017120;28;20033;-77
2023/11/23 01:57:46;;;;;;;24.45;19.20;;;10.10;96.80;;;;;;5019846;28;20099;-75
2023/11/23 02:00:13;;;;;;;27.17;18.98;;;10.10;96.70;;;;;;5017147;28;20037;-75
2023/11/23 02:02:41;;;;;;;25.60;17.30;;;10.20;96.70;;;;;;5020268;28;20484;-75
2023/11/23 02:05:09;;;;;;;24.20;18.50;;;10.20;96.70;;;;;;5022090;28;20029;-74
2023/11/23 02:07:35;;;;;;;23.35;17.45;;;10.20;96.60;;;;;;5014355;28;20042;-74
2023/11/23 02:10:01;;;;;;;25.88;18.15;;;10.20;96.60;;;;;;5019157;28;20066;-74
2023/11/23 02:12:28;;;;;;;24.98;17.17;;;10.20;96.50;;;;;;5022077;28;20044;-75
2023/11/23 02:14:54;;;;;;;26.13;18.23;;;10.20;96.50;;;;;;5021528;28;20051;-75
2023/11/23 02:17:20;;;;;;;25.15;17.20;;;10.30;96.30;;;;;;5021035;28;21285;-76
2023/11/23 02:19:48;;;;;;;22.50;17.55;;;10.20;96.20;;;;;;5021119;28;20033;-76
2023/11/23 02:22:14;;;;;;;27.15;18.30;;;10.20;96.20;;;;;;5014429;28;20037;-75
2023/11/23 02:24:42;;;;;;;23.42;17.83;;;10.20;96.20;;;;;;5021174;28;20057;-78
2023/11/23 02:27:08;;;;;;;23.27;16.33;;;10.20;96.20;;;;;;5019648;28;20046;-75
2023/11/23 02:29:34;;;;;;;26.08;17.23;;;10.30;96.20;;;;;;5021692;28;20045;-76
2023/11/23 02:32:07;;;;;;;24.42;17.20;;;10.20;96.10;;;;;;5022080;28;20030;-75
2023/11/23 02:34:34;;;;;;;24.40;18.17;;;10.20;96.20;;;;;;5023511;28;20075;-76
2023/11/23 02:36:59;;;;;;;24.38;17.30;;;10.20;96.20;;;;;;5022983;28;20041;-76
2023/11/23 02:39:25;;;;;;;21.38;15.90;;;10.20;96.20;;;;;;5020796;28;20048;-74
2023/11/23 02:41:51;;;;;;;19.73;15.30;;;10.20;96.20;;;;;;5021939;28;20196;-75
2023/11/23 02:44:17;;;;;;;21.33;16.05;;;10.20;96.10;;;;;;5017086;28;20060;-77
2023/11/23 02:46:42;;;;;;;21.98;16.42;;;10.20;96.10;;;;;;5019958;28;20349;-77
2023/11/23 02:49:09;;;;;;;25.63;16.33;;;10.20;96.10;;;;;;5023020;28;20075;-76
2023/11/23 02:51:35;;;;;;;24.77;17.13;;;10.30;96.10;;;;;;5020925;28;20045;-75
2023/11/23 02:54:01;;;;;;;21.90;15.52;;;10.30;96.10;;;;;;5020668;28;20030;-75
2023/11/23 02:56:26;;;;;;;20.65;16.13;;;10.30;96.00;;;;;;5018446;28;20112;-75
2023/11/23 02:58:53;;;;;;;24.23;17.05;;;10.30;96.00;;;;;;5022554;28;20148;-76
2023/11/23 03:01:21;;;;;;;20.75;15.95;;;10.30;96.00;;;;;;5019791;28;20504;-75
2023/11/23 03:03:47;;;;;;;21.52;15.68;;;10.30;96.00;;;;;;5023486;28;20025;-75
2023/11/23 03:06:13;;;;;;;20.85;14.57;;;10.30;95.90;;;;;;5020065;28;20060;-77
2023/11/23 03:08:39;;;;;;;18.40;14.50;;;10.30;95.90;;;;;;5021968;28;20605;-78
2023/11/23 03:11:04;;;;;;;20.55;14.32;;;10.30;95.80;;;;;;5009588;28;20482;-76
2023/11/23 03:13:30;;;;;;;17.58;13.70;;;10.30;95.80;;;;;;5021456;28;20529;-75
2023/11/23 03:15:56;;;;;;;19.20;13.65;;;10.30;95.70;;;;;;5018446;28;20474;-76
2023/11/23 03:18:21;;;;;;;18.38;14.43;;;10.40;95.80;;;;;;5017218;28;20048;-75
2023/11/23 03:20:47;;;;;;;22.65;14.45;;;10.30;95.70;;;;;;5023860;28;20350;-75
2023/11/23 03:23:13;;;;;;;20.83;13.13;;;10.30;95.80;;;;;;5017859;28;20072;-77
2023/11/23 03:25:38;;;;;;;20.50;13.57;;;10.40;95.80;;;;;;5021911;28;20471;-75
2023/11/23 03:28:06;;;;;;;18.60;13.70;;;10.40;95.70;;;;;;5023224;28;20047;-74
2023/11/23 03:30:32;;;;;;;23.02;14.35;;;10.40;95.50;;;;;;5020171;28;20060;-78
2023/11/23 03:32:58;;;;;;;18.55;13.80;;;10.40;95.60;;;;;;5019337;28;20045;-77
2023/11/23 03:35:24;;;;;;;20.58;14.50;;;10.40;95.60;;;;;;5020377;28;20443;-74
2023/11/23 03:37:49;;;;;;;20.50;14.00;;;10.50;95.60;;;;;;5020777;28;20363;-75
2023/11/23 03:40:15;;;;;;;18.67;13.55;;;10.50;95.40;;;;;;5019359;28;20038;-75
2023/11/23 03:42:41;;;;;;;19.42;13.10;;;10.50;95.40;;;;;;5016630;28;20042;-76
2023/11/23 03:45:07;;;;;;;15.90;12.73;;;10.50;95.50;;;;;;5018791;28;20044;-77
2023/11/23 03:47:33;;;;;;;16.60;12.48;;;10.40;95.50;;;;;;5022669;28;20068;-75
2023/11/23 03:49:59;;;;;;;18.67;13.85;;;10.40;95.60;;;;;;5019723;28;20095;-77
2023/11/23 03:52:24;;;;;;;20.35;13.18;;;10.50;95.60;;;;;;5033203;28;20103;-76
2023/11/23 03:54:50;;;;;;;18.17;12.90;;;10.50;95.50;;;;;;5033369;28;20045;-75
2023/11/23 03:57:16;;;;;;;18.50;13.25;;;10.40;95.60;;;;;;5037094;28;20024;-78
2023/11/23 03:59:42;;;;;;;17.25;12.63;;;10.40;95.50;;;;;;5020757;28;20072;-74
2023/11/23 04:02:07;;;;;;;17.38;13.05;;;10.40;95.60;;;;;;5020273;28;20091;-78
2023/11/23 04:04:33;;;;;;;17.40;14.05;;;10.40;95.70;;;;;;5018127;28;20057;-77
2023/11/23 04:06:58;;;;;;;17.52;13.48;;;10.40;95.60;;;;;;5015429;28;20069;-75
2023/11/23 04:09:25;;;;;;;16.15;13.25;;;10.40;95.70;;;;;;5019550;28;20064;-75
2023/11/23 04:11:50;;;;;;;17.75;12.88;;;10.30;95.70;;;;;;5017505;28;20501;-75
2023/11/23 04:14:16;;;;;;;18.13;13.32;;;10.30;95.80;;;;;;5017901;28;20029;-75
2023/11/23 04:16:41;;;;;;;17.70;12.27;;;10.30;95.80;;;;;;5018214;28;20029;-74
2023/11/23 04:19:07;;;;;;;16.40;12.98;;;10.30;95.90;;;;;;5018900;28;20033;-75
2023/11/23 04:21:33;;;;;;;16.23;12.32;;;10.30;95.90;;;;;;5016223;28;20482;-76
2023/11/23 04:23:59;;;;;;;18.33;12.35;;;10.30;95.80;;;;;;5019274;28;20453;-75
2023/11/23 04:26:25;;;;;;;18.02;12.80;;;10.30;95.80;;;;;;5020927;28;20505;-75
2023/11/23 04:28:51;;;;;;;21.63;13.30;;;10.30;95.90;;;;;;5019162;28;20509;-75
2023/11/23 04:31:17;;;;;;;17.25;12.35;;;10.20;95.90;;;;;;5018277;28;20042;-76
2023/11/23 04:33:43;;;;;;;17.67;13.02;;;10.20;96.10;;;;;;5021433;28;20029;-76
2023/11/23 04:36:11;;;;;;;19.38;12.93;;;10.20;96.10;;;;;;5019356;28;20041;-75
2023/11/23 04:38:36;;;;;;;18.55;12.90;;;10.20;96.10;;;;;;5019853;28;20087;-76
2023/11/23 04:41:02;;;;;;;19.13;13.27;;;10.20;96.00;;;;;;5018410;28;20034;-76
2023/11/23 04:43:28;;;;;;;18.80;13.70;;;10.20;95.90;;;;;;5016076;28;20041;-75
2023/11/23 04:45:54;;;;;;;20.60;13.98;;;10.10;96.00;;;;;;5017859;28;20057;-75
2023/11/23 04:48:19;;;;;;;16.65;13.18;;;10.00;96.10;;;;;;5016360;28;20056;-76
2023/11/23 04:50:45;;;;;;;17.88;13.95;;;10.10;96.10;;;;;;5017471;28;20084;-75
2023/11/23 04:53:10;;;;;;;17.92;13.20;;;9.90;96.00;;;;;;5017780;28;20060;-77
2023/11/23 04:55:38;;;;;;;18.73;13.85;;;9.90;96.10;;;;;;5019303;28;20037;-76
2023/11/23 04:58:04;;;;;;;17.48;12.43;;;9.90;96.30;;;;;;5019661;28;20609;-75
2023/11/23 05:00:30;;;;;;;19.35;14.05;;;9.90;96.40;;;;;;5020865;28;20045;-77
2023/11/23 05:02:56;;;;;;;17.90;12.40;;;10.00;96.40;;;;;;5020229;28;20037;-75
2023/11/23 05:05:21;;;;;;;15.98;12.48;;;9.90;96.50;;;;;;5018095;28;20084;-77
2023/11/23 05:07:47;;;;;;;17.38;12.55;;;10.00;96.50;;;;;;5019539;28;20041;-76
2023/11/23 05:10:13;;;;;;;15.77;11.77;;;10.10;96.50;;;;;;5016872;28;20041;-76
2023/11/23 05:12:39;;;;;;;16.23;11.75;;;10.10;96.50;;;;;;5018551;28;20501;-79
2023/11/23 05:15:05;;;;;;;18.65;11.93;;;10.10;96.50;;;;;;5017461;28;20048;-77
2023/11/23 05:17:32;;;;;;;17.33;11.02;;;10.10;96.50;;;;;;5018568;28;20483;-76
2023/11/23 05:19:58;;;;;;;17.45;10.55;;;10.10;96.50;;;;;;5016803;28;20029;-78
2023/11/23 05:22:24;;;;;;;13.77;10.10;;;10.10;96.50;;;;;;5023303;28;20120;-78
2023/11/23 05:24:50;;;;;;;18.90;11.15;;;10.10;96.40;;;;;;5013960;28;20108;-75
2023/11/23 05:27:16;;;;;;;16.63;10.88;;;10.10;96.30;;;;;;5018613;28;20422;-75
2023/11/23 05:29:42;;;;;;;16.42;11.10;;;10.10;96.40;;;;;;5010983;28;20359;-75
2023/11/23 05:32:07;;;;;;;16.85;11.00;;;10.10;96.40;;;;;;5016807;28;20037;-75
2023/11/23 05:34:33;;;;;;;15.82;10.48;;;10.10;96.40;;;;;;5019781;28;20120;-76
2023/11/23 05:36:59;;;;;;;16.17;9.77;;;10.10;96.40;;;;;;5016467;28;20122;-75
2023/11/23 05:39:24;;;;;;;14.90;9.73;;;10.10;96.40;;;;;;5013498;28;20075;-76
2023/11/23 05:41:50;;;;;;;14.10;10.32;;;10.10;96.50;;;;;;5010328;28;20360;-75
2023/11/23 05:44:16;;;;;;;16.98;10.23;;;10.10;96.40;;;;;;5015796;28;20043;-74
2023/11/23 05:46:42;;;;;;;14.82;10.15;;;10.10;96.30;;;;;;5014906;28;20371;-74
2023/11/23 05:49:07;;;;;;;15.00;9.98;;;10.10;96.20;;;;;;5032075;28;20337;-76
2023/11/23 05:51:33;;;;;;;13.73;9.00;;;10.20;96.20;;;;;;5016443;28;20080;-76
2023/11/23 05:53:59;;;;;;;14.55;7.97;;;10.20;96.20;;;;;;5030444;28;20030;-77
2023/11/23 05:56:26;;;;;;;13.50;9.27;;;10.20;96.20;;;;;;5016483;28;20072;-76
2023/11/23 05:58:53;;;;;;;13.02;8.82;;;10.20;96.10;;;;;;5021049;28;20144;-77
2023/11/23 06:01:19;;;;;;;14.55;9.50;;;10.20;96.10;;;;;;5018807;28;20041;-74
2023/11/23 06:03:45;;;;;;;13.40;8.70;;;10.20;96.20;;;;;;5023422;28;20025;-75
2023/11/23 06:06:19;;;;;;;13.05;8.88;;;10.20;96.20;;;;;;5024111;28;20604;-75
2023/11/23 06:08:46;;;;;;;14.68;9.75;;;10.10;96.20;;;;;;5018448;28;20061;-74
2023/11/23 06:11:11;;;;;;;15.00;8.68;;;10.20;96.30;;;;;;5019756;28;20041;-75
2023/11/23 06:13:37;;;;;;;15.80;9.70;;;10.20;96.30;;;;;;5019731;28;20084;-79
2023/11/23 06:16:04;;;;;;;13.77;8.10;;;10.20;96.30;;;;;;5020023;28;20029;-76
2023/11/23 06:18:30;;;;;;;12.27;8.15;;;10.20;96.20;;;;;;5020303;28;20041;-77
2023/11/23 06:20:55;;;;;;;12.85;8.15;;;10.20;96.10;;;;;;5021548;28;20579;-74
2023/11/23 06:23:22;;;;;;;13.50;8.13;;;10.20;96.20;;;;;;5018160;28;20500;-77
2023/11/23 06:25:48;;;;;;;13.63;8.18;;;10.20;96.10;;;;;;5019732;28;20325;-75
2023/11/23 06:28:15;;;;;;;11.23;7.38;;;10.10;96.00;;;;;;5022307;28;20037;-78
2023/11/23 06:30:41;;;;;;;15.48;8.43;;;10.10;96.10;;;;;;5019434;28;20049;-76
2023/11/23 06:33:08;;;;;;;11.73;7.90;;;10.10;96.10;;;;;;5021135;28;20293;-78
2023/11/23 06:35:34;;;;;;;13.30;7.35;;;10.10;96.20;;;;;;5018944;28;20037;-75
2023/11/23 06:38:00;;;;;;;12.30;7.10;;;10.00;96.20;;;;;;5022481;28;20052;-76
2023/11/23 06:40:28;;;;;;;14.70;7.82;;;10.00;96.40;;;;;;5021891;28;20036;-76
2023/11/23 06:42:54;;;;;;;14.20;8.02;;;9.90;96.40;;;;;;5021950;28;20486;-75
2023/11/23 06:45:20;;;;;;;13.15;7.57;;;9.90;96.50;;;;;;5020584;28;20056;-75
2023/11/23 06:47:47;;;;;;;15.48;8.27;;;9.90;96.60;;;;;;5019793;28;20044;-77
2023/11/23 06:50:13;;;;;;;19.25;8.15;;;9.80;96.60;;;;;;5022334;28;20104;-77
2023/11/23 06:52:39;;;;;;;10.60;7.25;;;9.80;96.70;;;;;;5021506;28;20841;-75
2023/11/23 06:55:05;;;;;;;12.55;7.60;;;9.80;96.80;;;;;;5018343;28;20041;-75
2023/11/23 06:57:32;;;;;;;11.18;7.90;;;9.90;97.00;;;;;;4999268;28;20079;-75
2023/11/23 06:59:58;;;;;;;12.63;8.27;;;9.80;97.00;;;;;;5016910;28;20052;-78
2023/11/23 07:02:25;;;;;;;13.80;8.05;;;9.90;97.00;;;;;;5013311;28;20057;-76
2023/11/23 07:04:51;;;;;;;16.83;9.40;;;10.00;97.10;;;;;;5020729;28;20689;-77
2023/11/23 07:07:16;;;;;;;13.52;8.75;;;10.00;97.10;;;;;;5013718;28;20316;-78
2023/11/23 07:09:42;;;;;;;14.93;8.52;;;10.00;97.00;;;;;;5013145;28;20029;-75
2023/11/23 07:12:08;;;;;;;18.08;8.40;;;10.10;97.00;;;;;;5014411;28;20833;-76
2023/11/23 07:14:34;;;;;;;13.55;7.90;;;10.10;97.00;;;;;;5016335;28;20033;-75
2023/11/23 07:17:00;;;;;;;14.07;8.15;;;10.10;97.00;;;;;;5007014;28;20479;-76
2023/11/23 07:19:26;;;;;;;14.93;8.02;;;10.20;97.00;;;;;;5015391;28;20470;-78
2023/11/23 07:21:52;;;;;;;16.25;8.30;;;10.20;97.10;;;;;;5012884;28;20707;-78
2023/11/23 07:24:18;;;;;;;15.27;7.82;;;10.30;97.00;;;;;;5016155;28;20036;-78
2023/11/23 07:26:44;;;;;;;13.20;7.60;;;10.30;96.90;;;;;;5014304;28;20038;-78
2023/11/23 07:29:10;;;;;;;11.27;7.72;;;10.40;96.80;;;;;;5014647;28;20355;-77
2023/11/23 07:31:37;;;;;;;12.75;7.25;;;10.40;96.70;;;;;;5028259;28;20100;-80
2023/11/23 07:34:03;;;;;;;16.33;8.02;;;10.40;96.70;;;;;;5015535;28;20336;-78
2023/11/23 07:36:30;;;;;;;12.48;7.13;;;10.50;96.60;;;;;;5012893;28;20041;-77
2023/11/23 07:38:56;;;;;;;13.50;7.60;;;10.50;96.60;;;;;;5016280;28;20065;-79
2023/11/23 07:41:21;;;;;;;14.25;7.63;;;10.50;96.50;;;;;;5014662;28;20136;-77
2023/11/23 07:43:47;;;;;;;13.68;7.90;;;10.60;96.60;;;;;;5015526;28;20033;-79
2023/11/23 07:46:13;;;;;;;14.60;7.32;;;10.60;96.50;;;;;;5014826;28;20171;-77
2023/11/23 07:48:38;;;;;;;11.85;6.95;;;10.60;96.50;;;;;;5015902;28;20288;-78
2023/11/23 07:51:04;;;;;;;11.13;6.47;;;10.60;96.50;;;;;;5015568;28;20557;-79
2023/11/23 07:53:30;;;;;;;12.38;6.88;;;10.60;96.40;;;;;;5013511;28;20045;-78
2023/11/23 07:55:59;;;;;;;12.85;6.20;;;10.60;96.40;;;;;;5015464;28;20606;-76
2023/11/23 07:58:24;;;;;;;12.32;6.65;;;10.60;96.40;;;;;;5008132;28;20045;-79
2023/11/23 08:00:50;;;;;;;13.15;6.82;;;10.70;96.40;;;;;;5016226;28;20084;-78
2023/11/23 08:03:16;;;;;;;12.68;6.03;;;10.80;96.30;;;;;;5015600;28;20486;-77
2023/11/23 08:05:42;;;;;;;11.98;5.68;;;10.80;96.30;;;;;;5012733;28;20116;-80
2023/11/23 08:08:07;;;;;;;11.85;6.30;;;10.70;96.30;;;;;;5016714;28;20080;-75
2023/11/23 08:10:33;;;;;;;12.20;6.07;;;10.80;96.30;;;;;;5015743;28;20029;-79
2023/11/23 08:12:59;;;;;;;11.38;6.30;;;10.80;96.30;;;;;;5017545;28;20423;-76
2023/11/23 08:15:24;;;;;;;12.00;5.93;;;10.80;96.20;;;;;;5015128;28;20541;-76
2023/11/23 08:17:50;;;;;;;12.68;6.32;;;10.90;96.10;;;;;;5018221;28;20056;-77
2023/11/23 08:20:16;;;;;;;10.38;5.95;;;10.90;96.10;;;;;;5012954;28;20432;-75
2023/11/23 08:22:42;;;;;;;12.90;6.55;;;10.90;96.00;;;;;;5012356;28;20045;-74
2023/11/23 08:25:08;;;;;;;11.93;6.65;;;10.90;96.10;;;;;;5013272;28;20050;-77
2023/11/23 08:27:34;;;;;;;12.07;6.43;;;10.90;96.10;;;;;;5012432;28;20046;-78
2023/11/23 08:29:59;;;;;;;13.73;6.00;;;11.00;96.00;;;;;;5011197;28;20033;-77
2023/11/23 08:32:25;;;;;;;12.30;7.03;;;11.00;96.00;;;;;;5014499;28;20437;-78
2023/11/23 08:34:52;;;;;;;11.85;6.38;;;11.00;96.00;;;;;;5010382;28;20292;-77
2023/11/23 08:37:18;;;;;;;13.05;6.18;;;11.00;96.00;;;;;;5012878;28;20038;-79
2023/11/23 08:39:44;;;;;;;13.02;6.10;;;11.10;95.90;;;;;;5028361;28;20037;-75
2023/11/23 08:42:10;;;;;;;13.77;5.80;;;11.10;95.90;;;;;;5010465;28;20513;-76
2023/11/23 08:44:39;;;;;;;12.75;6.18;;;11.10;95.90;;;;;;5015411;28;20087;-79
2023/11/23 08:47:05;;;;;;;11.57;6.18;;;11.10;95.90;;;;;;5013645;28;20041;-74
2023/11/23 08:49:31;;;;;;;12.38;6.65;;;11.10;95.90;;;;;;5027985;28;20029;-76
2023/11/23 08:51:57;;;;;;;11.63;6.15;;;11.10;95.90;;;;;;5031370;28;20105;-77
2023/11/23 08:54:23;;;;;;;10.93;5.70;;;11.10;95.80;;;;;;5026419;28;20446;-75
2023/11/23 08:56:49;;;;;;;12.18;5.97;;;11.20;95.80;;;;;;5010245;28;20049;-75
2023/11/23 08:59:14;;;;;;;13.75;6.82;;;11.20;95.80;;;;;;5011527;28;20297;-78
2023/11/23 09:01:40;;;;;;;11.30;6.18;;;11.20;95.90;;;;;;5009858;28;20034;-77
2023/11/23 09:04:05;;;;;;;11.52;5.78;;;11.20;95.90;;;;;;5018327;28;20195;-77
2023/11/23 09:06:31;;;;;;;11.43;6.10;;;11.30;95.80;;;;;;5010440;28;20087;-74
2023/11/23 09:09:00;;;;;;;10.48;5.97;;;11.30;95.70;;;;;;5011973;28;20396;-76
2023/11/23 09:11:26;;;;;;;10.98;6.35;;;11.30;95.70;;;;;;5008891;28;20132;-76
2023/11/23 09:13:52;;;;;;;13.30;6.05;;;11.40;95.60;;;;;;5016369;28;20017;-74
2023/11/23 09:16:18;;;;;;;11.45;5.50;;;11.40;95.60;;;;;;5013853;28;20375;-75
2023/11/23 09:18:44;;;;;;;11.35;5.57;;;11.50;95.60;;;;;;5014991;28;20344;-78
2023/11/23 09:21:10;;;;;;;12.60;5.68;;;11.50;95.50;;;;;;5017601;28;20399;-75
2023/11/23 09:23:36;;;;;;;14.00;6.07;;;11.50;95.50;;;;;;5017524;28;20113;-76
2023/11/23 09:26:03;;;;;;;9.88;5.00;;;11.50;95.50;;;;;;5019215;28;20038;-77
2023/11/23 09:28:30;;;;;;;10.35;5.22;;;11.60;95.40;;;;;;5018343;28;20268;-75
2023/11/23 09:30:56;;;;;;;11.25;5.50;;;11.60;95.40;;;;;;5016948;28;20372;-79
2023/11/23 09:33:22;;;;;;;12.45;6.53;;;11.70;95.20;;;;;;5014483;28;20053;-74
2023/11/23 09:35:48;;;;;;;10.23;5.10;;;11.70;95.10;;;;;;5017817;28;20068;-76
2023/11/23 09:38:14;;;;;;;10.35;4.95;;;11.70;95.00;;;;;;5016650;28;20438;-78
2023/11/23 09:40:43;;;;;;;12.10;5.18;;;11.80;94.90;;;;;;5016166;28;20541;-76
2023/11/23 09:43:09;;;;;;;11.77;4.78;;;11.80;94.80;;;;;;5015219;28;20029;-75
2023/11/23 09:45:35;;;;;;;10.35;4.70;;;11.80;94.80;;;;;;5015254;28;20141;-76
2023/11/23 09:48:02;;;;;;;9.23;5.10;;;11.80;94.80;;;;;;5017451;28;20052;-76
2023/11/23 09:50:28;;;;;;;10.93;4.90;;;11.80;94.80;;;;;;5015166;28;20044;-73
2023/11/23 09:52:55;;;;;;;11.75;5.70;;;11.90;94.70;;;;;;5013670;28;20110;-76
2023/11/23 09:55:21;;;;;;;13.05;5.05;;;12.00;94.70;;;;;;5015626;28;20377;-73
2023/11/23 09:57:48;;;;;;;11.18;4.93;;;12.00;94.60;;;;;;5017875;28;20165;-74
2023/11/23 10:00:14;;;;;;;11.27;5.30;;;12.10;94.40;;;;;;5016862;28;20123;-77
2023/11/23 10:02:45;;;;;;;11.55;4.65;;;12.10;94.30;;;;;;5018097;28;20049;-73
2023/11/23 10:05:15;;;;;;;12.73;4.82;;;12.10;94.30;;;;;;5016044;28;20056;-73
2023/11/23 10:07:43;;;;;;;11.70;5.10;;;12.10;94.20;;;;;;5013051;28;20183;-76
2023/11/23 10:10:13;;;;;;;9.80;5.20;;;12.20;94.10;;;;;;5018240;28;20494;-75
2023/11/23 10:12:40;;;;;;;11.48;4.85;;;12.30;94.10;;;;;;5016521;28;20103;-77
2023/11/23 10:15:08;;;;;;;10.95;4.95;;;12.40;93.90;;;;;;5016665;28;20429;-74
2023/11/23 10:17:34;;;;;;;9.13;4.63;;;12.40;93.90;;;;;;5014887;28;20393;-75
2023/11/23 10:20:07;;;;;;;12.60;5.70;;;12.60;93.50;;;;;;5017953;28;20179;-77
2023/11/23 10:22:32;;;;;;;11.30;4.97;;;12.60;93.50;;;;;;5016047;28;20063;-74
2023/11/23 10:24:59;;;;;;;9.30;5.57;;;12.60;93.30;;;;;;5015316;28;20041;-78
2023/11/23 10:27:24;;;;;;;11.82;4.68;;;12.70;93.20;;;;;;5018490;28;20643;-74
2023/11/23 10:29:50;;;;;;;12.75;5.53;;;12.70;93.00;;;;;;5015293;28;20046;-75
2023/11/23 10:32:16;;;;;;;12.48;4.82;;;12.70;92.90;;;;;;5015942;28;20080;-76
2023/11/23 10:34:42;;;;;;;10.20;4.57;;;12.70;93.00;;;;;;5016278;28;20549;-73
2023/11/23 10:37:13;;;;;;;11.07;4.75;;;12.70;93.00;;;;;;5011709;28;20033;-77
2023/11/23 10:39:38;;;;;;;13.70;5.43;;;12.70;93.00;;;;;;5017874;28;20123;-77
2023/11/23 10:42:05;;;;;;;13.82;5.30;;;12.70;93.20;;;;;;5015571;28;20037;-74
2023/11/23 10:44:33;;;;;;;10.95;5.63;;;12.70;93.30;;;;;;5018053;28;20147;-78
2023/11/23 10:47:03;;;;;;;12.48;4.90;;;12.80;93.30;;;;;;5012858;28;20037;-78
2023/11/23 10:49:35;;;;;;;9.63;4.75;;;12.80;93.10;;;;;;5018381;28;20025;-77
2023/11/23 10:52:07;;;;;;;9.65;4.53;;;12.90;93.20;;;;;;5012708;28;20042;-78
2023/11/23 10:54:33;;;;;;;11.88;4.75;;;12.90;93.00;;;;;;5015045;28;20490;-79
2023/11/23 10:57:02;;;;;;;11.25;5.38;;;12.90;93.00;;;;;;5012786;28;20041;-76
2023/11/23 10:59:29;;;;;;;11.50;4.95;;;12.90;93.10;;;;;;5016339;28;20034;-76
2023/11/23 11:01:56;;;;;;;12.40;4.65;;;13.00;92.90;;;;;;5016107;28;20029;-76
2023/11/23 11:04:22;;;;;;;11.70;5.07;;;13.10;92.80;;;;;;5016004;28;20013;-78
2023/11/23 11:06:55;;;;;;;13.43;5.75;;;13.10;92.50;;;;;;5014486;28;20042;-75
2023/11/23 11:09:25;;;;;;;13.75;5.10;;;13.00;92.70;;;;;;5016484;28;20037;-75
2023/11/23 11:11:56;;;;;;;13.13;5.25;;;13.10;92.60;;;;;;5016322;28;20041;-76
2023/11/23 11:14:32;;;;;;;9.60;4.97;;;13.10;92.60;;;;;;5018450;28;20018;-76
2023/11/23 11:17:05;;;;;;;13.48;5.30;;;13.10;92.70;;;;;;5017797;28;20037;-77
2023/11/23 11:19:43;;;;;;;10.65;4.97;;;13.10;92.80;;;;;;5015813;28;20108;-78
2023/11/23 11:22:13;;;;;;;13.85;5.47;;;13.00;93.00;;;;;;5009518;28;20037;-77
2023/11/23 11:24:40;;;;;;;12.30;5.10;;;13.00;93.10;;;;;;5006957;28;20445;-75
2023/11/23 11:27:10;;;;;;;8.88;4.78;;;13.00;93.20;;;;;;5010022;28;20044;-76
2023/11/23 11:29:36;;;;;;;13.15;6.18;;;13.00;93.30;;;;;;5004394;28;20120;-76
2023/11/23 11:32:08;;;;;;;13.52;6.18;;;13.00;93.30;;;;;;5007107;28;20168;-76
2023/11/23 11:34:36;;;;;;;12.93;6.32;;;12.90;93.40;;;;;;5009359;28;20022;-76
2023/11/23 11:37:03;;;;;;;16.85;6.13;;;13.00;93.30;;;;;;5003492;28;20034;-77
2023/11/23 11:39:36;;;;;;;12.35;6.22;;;13.00;93.20;;;;;;5008585;28;20044;-76
2023/11/23 11:42:13;;;;;;;15.03;5.13;;;13.00;93.20;;;;;;5007877;28;20048;-75
2023/11/23 11:44:43;;;;;;;13.65;5.45;;;13.00;93.30;;;;;;5008963;28;20029;-74
2023/11/23 11:47:10;;;;;;;15.50;5.47;;;13.00;93.40;;;;;;5003859;28;20030;-75
2023/11/23 11:49:36;;;;;;;11.30;5.13;;;13.00;93.30;;;;;;5009946;28;20033;-77
2023/11/23 11:52:02;;;;;;;11.13;4.82;;;13.10;93.20;;;;;;5010397;28;20037;-77
2023/11/23 11:54:29;;;;;;;10.20;4.63;;;13.10;93.20;;;;;;5008867;28;20028;-78
2023/11/23 11:56:54;;;;;;;10.38;4.85;;;13.10;92.80;;;;;;5003795;28;20049;-75
2023/11/23 11:59:22;;;;;;;13.68;5.03;;;13.10;92.80;;;;;;5008900;28;20424;-78
2023/11/23 12:01:48;;;;;;;12.55;5.32;;;13.00;92.70;;;;;;5004900;28;20705;-76
2023/11/23 12:04:16;;;;;;;12.80;4.68;;;13.10;92.90;;;;;;5006137;28;20112;-77
2023/11/23 12:06:44;;;;;;;11.10;4.95;;;13.00;92.90;;;;;;5004910;28;20597;-77
2023/11/23 12:09:22;;;;;;;14.88;5.55;;;13.10;92.90;;;;;;5015711;28;20060;-74
2023/11/23 12:11:48;;;;;;;12.10;5.45;;;13.10;92.70;;;;;;5013349;28;20040;-76
2023/11/23 12:14:15;;;;;;;13.65;5.18;;;13.10;92.80;;;;;;5015483;28;20480;-80
2023/11/23 12:16:42;;;;;;;13.32;5.90;;;13.10;92.60;;;;;;5011802;28;20430;-77
2023/11/23 12:19:24;;;;;;;11.65;5.78;;;13.10;92.60;;;;;;5016481;28;20146;-81
2023/11/23 12:21:57;;;;;;;12.27;5.53;;;13.10;92.80;;;;;;5013321;28;20412;-79
2023/11/23 12:24:25;;;;;;;13.27;6.47;;;13.10;93.10;;;;;;5014099;28;20383;-80
2023/11/23 12:26:58;;;;;;;16.65;8.27;;;13.10;93.00;;;;;;5007463;28;20116;-80
2023/11/23 12:29:30;;;;;;;11.70;7.10;;;13.00;93.00;;;;;;5005036;28;20139;-75